Time;durP1;ratioP1;P1;durP2;ratioP2;P2;SDS_P1;SDS_P2;PMS_P1;PMS_P2;Temp;Humidity;BMP_temperature;BMP_pressure;BME280_temperature;BME280_humidity;BME280_pressure;Samples;Min_cycle;Max_cycle;Signal;HPM_P1;HPM_P2
2022/03/10 00:00:06;;;;;;;;;31.25;28.50;;;;;16.33;41.46;101646.81;5104470;27;62276;-77
2022/03/10 00:02:32;;;;;;;;;35.00;27.00;;;;;16.30;41.35;101641.41;5105315;27;63142;-77
2022/03/10 00:04:57;;;;;;;;;37.25;29.00;;;;;16.28;41.35;101640.47;5105868;27;61890;-76
2022/03/10 00:07:23;;;;;;;;;33.25;26.50;;;;;16.24;41.44;101645.56;5105697;27;62657;-77
2022/03/10 00:09:48;;;;;;;;;38.00;33.75;;;;;16.19;41.31;101644.50;5106117;27;62105;-77
2022/03/10 00:12:14;;;;;;;;;36.00;28.75;;;;;16.18;41.49;101637.44;5137458;27;65176;-77
2022/03/10 00:14:39;;;;;;;;;39.00;29.00;;;;;16.16;41.74;101640.00;5104166;27;61914;-77
2022/03/10 00:17:05;;;;;;;;;36.25;29.00;;;;;16.14;41.57;101642.59;5105954;27;61803;-77
2022/03/10 00:19:30;;;;;;;;;36.50;30.25;;;;;16.12;41.68;101640.75;5105991;27;61754;-76
2022/03/10 00:21:56;;;;;;;;;42.00;27.00;;;;;16.08;41.53;101642.38;5103720;27;61897;-76
2022/03/10 00:24:22;;;;;;;;;31.50;29.75;;;;;15.98;41.55;101642.91;5105461;27;62009;-77
2022/03/10 00:26:48;;;;;;;;;40.75;36.25;;;;;15.92;41.67;101640.06;5103591;27;61942;-77
2022/03/10 00:29:14;;;;;;;;;22.50;21.75;;;;;15.90;41.64;101637.34;5105349;27;61721;-76
2022/03/10 00:31:40;;;;;;;;;42.25;29.00;;;;;15.89;41.70;101647.88;5104845;27;61801;-76
2022/03/10 00:34:06;;;;;;;;;32.00;30.25;;;;;15.86;41.84;101648.66;5105695;27;62033;-77
2022/03/10 00:36:32;;;;;;;;;40.00;33.75;;;;;15.84;41.94;101644.16;5105887;27;61902;-76
2022/03/10 00:38:57;;;;;;;;;33.50;28.75;;;;;15.80;42.03;101645.78;5105731;27;62168;-77
2022/03/10 00:41:23;;;;;;;;;34.50;28.25;;;;;15.76;42.08;101654.44;5104493;27;62957;-76
2022/03/10 00:43:48;;;;;;;;;36.75;34.50;;;;;15.76;41.98;101653.56;5103092;27;61693;-76
2022/03/10 00:46:14;;;;;;;;;32.00;28.25;;;;;15.75;41.95;101652.66;5104984;27;61786;-76
2022/03/10 00:48:40;;;;;;;;;37.50;30.25;;;;;15.73;41.80;101655.25;5105025;27;62116;-76
2022/03/10 00:51:06;;;;;;;;;36.50;32.50;;;;;15.72;41.81;101647.25;5103102;27;61849;-76
2022/03/10 00:53:31;;;;;;;;;36.00;32.00;;;;;15.69;42.22;101647.09;5103913;27;62310;-77
2022/03/10 00:55:57;;;;;;;;;38.50;30.25;;;;;15.68;41.94;101648.84;5104797;27;61969;-75
2022/03/10 00:58:22;;;;;;;;;32.75;28.25;;;;;15.66;42.16;101642.59;5104753;27;62132;-77
2022/03/10 01:00:48;;;;;;;;;37.75;33.25;;;;;15.68;42.22;101646.22;5104538;27;62088;-77
2022/03/10 01:03:14;;;;;;;;;39.50;32.75;;;;;15.64;42.30;101648.66;5104660;27;61972;-76
2022/03/10 01:05:39;;;;;;;;;34.75;31.75;;;;;15.62;42.07;101647.72;5105157;27;61755;-77
2022/03/10 01:08:05;;;;;;;;;34.75;30.75;;;;;15.64;42.06;101651.31;5103597;27;61845;-76
2022/03/10 01:10:30;;;;;;;;;39.75;31.00;;;;;15.61;42.33;101646.81;5103114;27;63534;-76
2022/03/10 01:12:56;;;;;;;;;30.50;27.00;;;;;15.60;42.15;101649.41;5102959;27;61933;-76
2022/03/10 01:15:24;;;;;;;;;31.25;28.00;;;;;15.63;42.30;101647.75;5103723;27;61751;-77
2022/03/10 01:17:50;;;;;;;;;36.00;28.00;;;;;15.62;42.10;101639.78;5104577;27;61779;-76
2022/03/10 01:20:22;;;;;;;;;28.75;21.50;;;;;15.61;42.26;101645.91;5102750;27;64754;-77
2022/03/10 01:22:48;;;;;;;;;29.75;26.25;;;;;15.60;42.11;101652.97;5104702;27;61747;-76
2022/03/10 01:25:14;;;;;;;;;34.75;29.25;;;;;15.60;41.90;101650.31;5104642;27;61724;-76
2022/03/10 01:27:40;;;;;;;;;35.25;26.25;;;;;15.60;42.59;101649.41;5119522;27;62362;-77
2022/03/10 01:30:07;;;;;;;;;38.50;27.75;;;;;15.61;41.89;101645.91;5104204;27;61816;-77
2022/03/10 01:32:34;;;;;;;;;36.50;28.00;;;;;15.55;42.18;101649.22;5104403;27;61898;-77
2022/03/10 01:35:01;;;;;;;;;34.75;30.00;;;;;15.53;42.07;101643.88;5103022;27;61782;-77
2022/03/10 01:37:27;;;;;;;;;36.75;26.25;;;;;15.56;42.13;101650.13;5104510;27;61910;-76
2022/03/10 01:39:52;;;;;;;;;30.75;26.25;;;;;15.53;42.15;101638.59;5102123;27;63725;-76
2022/03/10 01:42:18;;;;;;;;;37.75;30.75;;;;;15.50;42.13;101637.56;5103234;27;61925;-76
2022/03/10 01:44:43;;;;;;;;;42.50;32.00;;;;;15.48;42.03;101634.84;5104519;27;61731;-76
2022/03/10 01:47:10;;;;;;;;;31.50;25.50;;;;;15.46;41.87;101636.53;5104777;27;61810;-77
2022/03/10 01:49:36;;;;;;;;;38.00;32.25;;;;;15.41;42.21;101632.81;5103403;27;62787;-77
2022/03/10 01:52:03;;;;;;;;;28.50;28.50;;;;;15.41;41.84;101630.19;5103126;27;62177;-76
2022/03/10 01:54:28;;;;;;;;;31.75;29.50;;;;;15.42;42.00;101626.69;5104444;27;61939;-77
2022/03/10 01:56:54;;;;;;;;;34.25;28.75;;;;;15.40;41.94;101638.06;5101506;27;61904;-76
2022/03/10 01:59:20;;;;;;;;;31.75;26.75;;;;;15.39;42.01;101634.50;5102196;27;63719;-77
2022/03/10 02:01:46;;;;;;;;;35.50;29.75;;;;;15.37;42.12;101635.31;5103233;27;61713;-76
2022/03/10 02:04:13;;;;;;;;;37.75;29.25;;;;;15.34;42.11;101629.06;5102757;27;61946;-77
2022/03/10 02:06:39;;;;;;;;;36.50;30.25;;;;;15.29;42.07;101627.94;5102123;27;62088;-76
2022/03/10 02:11:49;;;;;;;;;35.75;29.50;;;;;15.30;42.33;101635.06;5102422;27;61914;-75
2022/03/10 02:19:43;;;;;;;;;32.50;28.00;;;;;15.21;42.04;101640.00;5102873;27;62426;-76
2022/03/10 02:22:10;;;;;;;;;34.50;31.50;;;;;15.19;42.43;101628.47;5101604;27;61735;-76
2022/03/10 02:24:41;;;;;;;;;34.25;26.50;;;;;15.18;42.24;101629.28;5102735;27;61918;-76
2022/03/10 02:27:25;;;;;;;;;36.50;30.50;;;;;15.15;42.47;101634.47;5102436;27;61751;-76
2022/03/10 02:29:52;;;;;;;;;44.00;32.00;;;;;15.15;42.47;101633.56;5101139;27;63322;-76
2022/03/10 02:32:19;;;;;;;;;30.50;21.75;;;;;15.10;42.18;101636.94;5102720;27;61729;-76
2022/03/10 02:34:45;;;;;;;;;31.00;25.00;;;;;15.08;42.36;101633.31;5103166;27;62146;-76
2022/03/10 02:37:12;;;;;;;;;28.50;25.75;;;;;15.08;42.35;101637.69;5101817;27;62209;-77
2022/03/10 02:39:38;;;;;;;;;35.25;28.50;;;;;15.08;42.26;101640.34;5102090;27;62057;-76
2022/03/10 02:42:05;;;;;;;;;39.50;26.50;;;;;15.04;42.43;101647.25;5100773;27;61824;-76
2022/03/10 02:44:31;;;;;;;;;30.75;28.25;;;;;15.00;42.68;101645.34;5102945;27;61945;-76
2022/03/10 02:46:56;;;;;;;;;40.75;31.00;;;;;14.98;42.56;101646.13;5103088;27;62129;-75
2022/03/10 02:49:22;;;;;;;;;31.25;29.00;;;;;14.96;42.78;101653.09;5100797;27;63736;-76
2022/03/10 02:51:47;;;;;;;;;33.75;27.00;;;;;14.95;42.67;101648.63;5102483;27;61759;-75
2022/03/10 02:54:13;;;;;;;;;31.75;26.50;;;;;14.92;42.69;101645.00;5100842;27;61980;-76
2022/03/10 02:56:39;;;;;;;;;33.00;23.50;;;;;14.92;42.67;101642.38;5101967;27;61730;-75
2022/03/10 02:59:04;;;;;;;;;29.25;25.25;;;;;14.91;42.72;101640.59;5100435;27;63653;-76
2022/03/10 03:01:30;;;;;;;;;36.25;33.25;;;;;14.91;42.52;101640.59;5102437;27;61825;-76
2022/03/10 03:03:56;;;;;;;;;30.25;25.25;;;;;14.89;42.30;101646.66;5102437;27;61783;-76
2022/03/10 03:06:22;;;;;;;;;36.50;32.00;;;;;14.85;42.88;101637.69;5101174;27;61827;-76
2022/03/10 03:08:47;;;;;;;;;25.75;23.50;;;;;14.88;42.80;101647.47;5101450;27;61818;-76
2022/03/10 03:11:13;;;;;;;;;33.00;27.25;;;;;14.87;42.57;101649.22;5102048;27;62036;-76
2022/03/10 03:13:38;;;;;;;;;32.75;30.50;;;;;14.80;42.36;101647.16;5102136;27;61912;-76
2022/03/10 03:16:04;;;;;;;;;33.00;30.00;;;;;14.75;42.61;101642.53;5100221;27;62197;-76
2022/03/10 03:18:29;;;;;;;;;33.00;27.50;;;;;14.72;42.35;101653.88;5101567;27;61909;-76
2022/03/10 03:20:57;;;;;;;;;32.25;23.25;;;;;14.70;42.62;101653.81;5102108;27;62324;-76
2022/03/10 03:23:27;;;;;;;;;42.50;29.50;;;;;14.65;42.38;101650.09;5101859;27;61850;-76
2022/03/10 03:25:53;;;;;;;;;33.25;23.75;;;;;14.65;42.40;101665.94;5100985;27;61865;-76
2022/03/10 03:28:21;;;;;;;;;29.25;26.00;;;;;14.66;42.58;101661.56;5099315;27;63869;-76
2022/03/10 03:30:50;;;;;;;;;39.50;27.25;;;;;14.63;42.47;101657.06;5102217;27;61646;-76
2022/03/10 03:33:15;;;;;;;;;32.75;26.75;;;;;14.63;42.63;101664.97;5101940;27;61785;-76
2022/03/10 03:35:41;;;;;;;;;33.75;29.50;;;;;14.60;42.64;101666.59;5102062;27;61775;-75
2022/03/10 03:38:07;;;;;;;;;33.75;25.75;;;;;14.55;42.49;101668.09;5099609;27;64498;-76
2022/03/10 03:40:32;;;;;;;;;33.50;28.50;;;;;14.58;42.57;101666.50;5100704;27;61872;-76
2022/03/10 03:42:58;;;;;;;;;35.00;27.75;;;;;14.60;42.88;101666.59;5101802;27;62372;-76
2022/03/10 03:45:23;;;;;;;;;26.75;24.75;;;;;14.68;42.81;101667.81;5102386;27;62013;-75
2022/03/10 03:47:49;;;;;;;;;31.25;22.00;;;;;14.70;42.35;101666.13;5101069;27;62893;-76
2022/03/10 03:50:14;;;;;;;;;33.25;29.00;;;;;14.71;42.37;101670.56;5102076;27;61885;-75
2022/03/10 03:52:40;;;;;;;;;31.50;24.25;;;;;14.71;42.68;101671.47;5117361;27;61933;-76
2022/03/10 03:55:06;;;;;;;;;34.50;27.50;;;;;14.70;42.44;101676.72;5101985;27;62168;-76
2022/03/10 03:57:32;;;;;;;;;38.50;29.50;;;;;14.69;42.52;101670.50;5100273;27;61852;-76
2022/03/10 03:59:57;;;;;;;;;30.50;25.75;;;;;14.68;42.52;101673.09;5101928;27;61763;-76
2022/03/10 04:02:22;;;;;;;;;38.00;27.75;;;;;14.69;42.21;101678.41;5100044;27;62541;-76
2022/03/10 04:04:48;;;;;;;;;27.25;23.75;;;;;14.68;42.36;101668.69;5101736;27;61689;-76
2022/03/10 04:07:14;;;;;;;;;31.75;31.50;;;;;14.66;42.67;101673.03;5100823;27;62103;-76
2022/03/10 04:09:40;;;;;;;;;34.50;24.75;;;;;14.64;42.52;101679.97;5101411;27;61869;-76
2022/03/10 04:12:05;;;;;;;;;33.50;29.00;;;;;14.66;42.77;101677.41;5101182;27;61957;-76
2022/03/10 04:14:31;;;;;;;;;28.00;24.75;;;;;14.64;42.55;101684.38;5101899;27;61795;-76
2022/03/10 04:16:56;;;;;;;;;44.00;31.25;;;;;14.64;42.68;101681.72;5101051;27;61977;-76
2022/03/10 04:19:22;;;;;;;;;35.25;29.50;;;;;14.64;42.53;101679.97;5100276;27;61810;-76
2022/03/10 04:21:47;;;;;;;;;36.25;28.50;;;;;14.62;42.66;101678.13;5101036;27;61796;-76
2022/03/10 04:24:13;;;;;;;;;34.75;29.50;;;;;14.61;42.73;101674.59;5101226;27;61894;-75
2022/03/10 04:26:39;;;;;;;;;37.50;30.50;;;;;14.60;42.87;101677.16;5100959;27;62735;-76
2022/03/10 04:29:04;;;;;;;;;32.50;27.25;;;;;14.55;42.66;101679.59;5105034;27;61912;-75
2022/03/10 04:31:30;;;;;;;;;37.25;27.75;;;;;14.57;42.97;101682.28;5105116;27;61670;-76
2022/03/10 04:33:55;;;;;;;;;32.25;25.25;;;;;14.58;42.65;101686.75;5104782;27;61958;-75
2022/03/10 04:36:21;;;;;;;;;39.25;30.75;;;;;14.52;42.81;101685.63;5103657;27;61678;-76
2022/03/10 04:38:47;;;;;;;;;37.00;31.25;;;;;14.49;42.75;101684.59;5104683;27;61744;-76
2022/03/10 04:41:13;;;;;;;;;33.25;29.75;;;;;14.49;42.97;101688.13;5103348;27;61769;-76
2022/03/10 04:43:39;;;;;;;;;27.25;25.00;;;;;14.49;42.76;101690.75;5103327;27;61775;-76
2022/03/10 04:46:04;;;;;;;;;32.00;26.00;;;;;14.47;42.90;101695.06;5104366;27;63063;-76
2022/03/10 04:48:30;;;;;;;;;28.75;24.50;;;;;14.46;43.01;101692.38;5104630;27;61890;-76
2022/03/10 04:50:55;;;;;;;;;30.25;26.50;;;;;14.44;42.94;101689.69;5102831;27;61910;-76
2022/03/10 04:53:21;;;;;;;;;31.75;25.00;;;;;14.43;43.16;101693.13;5104646;27;61860;-76
2022/03/10 04:55:47;;;;;;;;;35.25;27.50;;;;;14.41;42.91;101686.00;5104083;27;63046;-76
2022/03/10 04:58:13;;;;;;;;;39.75;33.00;;;;;14.38;43.12;101693.78;5103722;27;61847;-76
2022/03/10 05:00:38;;;;;;;;;35.75;31.75;;;;;14.36;43.39;101692.81;5103401;27;61944;-76
2022/03/10 05:03:03;;;;;;;;;35.00;28.75;;;;;14.30;43.49;101690.81;5102827;27;62216;-76
2022/03/10 05:05:29;;;;;;;;;31.50;26.50;;;;;14.23;43.28;101687.00;5103444;27;63050;-76
2022/03/10 05:07:54;;;;;;;;;34.50;30.50;;;;;14.23;43.48;101684.34;5104393;27;61937;-75
2022/03/10 05:10:20;;;;;;;;;36.25;30.00;;;;;14.21;43.59;101685.13;5104593;27;61789;-76
2022/03/10 05:12:47;;;;;;;;;34.50;27.00;;;;;14.20;43.70;101683.31;5102659;27;62106;-76
2022/03/10 05:15:12;;;;;;;;;43.00;34.50;;;;;14.16;43.59;101684.00;5102196;27;61932;-76
2022/03/10 05:17:38;;;;;;;;;26.75;17.75;;;;;14.10;43.42;101689.94;5104307;27;61809;-76
2022/03/10 05:20:05;;;;;;;;;29.25;20.50;;;;;14.08;43.74;101683.69;5103872;27;61855;-76
2022/03/10 05:22:57;;;;;;;;;38.25;29.25;;;;;14.07;43.82;101676.59;5104070;27;61959;-76
2022/03/10 05:25:30;;;;;;;;;30.75;28.50;;;;;14.04;43.91;101682.63;5102634;27;63071;-76
2022/03/10 05:27:56;;;;;;;;;36.00;30.00;;;;;13.95;44.15;101678.69;5103435;27;61954;-76
2022/03/10 05:30:21;;;;;;;;;38.25;29.50;;;;;13.94;44.31;101688.31;5103948;27;61706;-77
2022/03/10 05:32:47;;;;;;;;;36.00;28.50;;;;;13.96;44.09;101680.50;5103856;27;61756;-76
2022/03/10 05:35:14;;;;;;;;;33.50;29.50;;;;;13.97;44.51;101682.28;5101958;27;64659;-76
2022/03/10 05:37:41;;;;;;;;;29.25;26.50;;;;;13.94;44.24;101672.50;5102068;27;61866;-76
2022/03/10 05:40:15;;;;;;;;;34.75;26.50;;;;;13.94;44.41;101684.78;5103611;27;61914;-76
2022/03/10 05:42:42;;;;;;;;;41.00;30.00;;;;;13.92;44.63;101679.44;5103777;27;62028;-76
2022/03/10 05:45:09;;;;;;;;;39.50;30.00;;;;;13.90;44.42;101679.38;5103288;27;61828;-76
2022/03/10 05:47:35;;;;;;;;;38.25;31.50;;;;;13.86;44.33;101679.16;5103418;27;61831;-76
2022/03/10 05:50:02;;;;;;;;;43.50;33.50;;;;;13.80;44.56;101681.53;5102614;27;62121;-76
2022/03/10 05:52:27;;;;;;;;;45.25;35.25;;;;;13.73;44.92;101679.44;5103772;27;61850;-75
2022/03/10 05:54:53;;;;;;;;;31.75;27.25;;;;;13.70;44.64;101688.13;5101962;27;64932;-76
2022/03/10 05:57:18;;;;;;;;;32.25;27.00;;;;;13.69;44.74;101688.97;5102568;27;61851;-75
2022/03/10 05:59:44;;;;;;;;;38.75;30.00;;;;;13.70;44.91;101696.03;5102003;27;61753;-76
2022/03/10 06:02:09;;;;;;;;;35.00;30.25;;;;;13.73;44.73;101695.28;5103207;27;61830;-76
2022/03/10 06:04:35;;;;;;;;;34.50;32.25;;;;;13.69;44.62;101692.50;5102781;27;61842;-76
2022/03/10 06:07:00;;;;;;;;;32.50;29.25;;;;;13.66;44.94;101694.97;5102118;27;61960;-76
2022/03/10 06:09:26;;;;;;;;;33.75;30.00;;;;;13.67;44.93;101691.53;5103623;27;61827;-76
2022/03/10 06:11:51;;;;;;;;;38.50;32.25;;;;;13.65;45.13;101690.56;5119003;27;61943;-76
2022/03/10 06:14:18;;;;;;;;;39.75;32.00;;;;;13.62;45.05;101687.75;5102572;27;62088;-79
2022/03/10 06:16:44;;;;;;;;;40.75;31.00;;;;;13.64;44.85;101683.44;5102876;27;62137;-78
2022/03/10 06:19:10;;;;;;;;;46.75;37.75;;;;;13.62;45.39;101685.13;5101391;27;61997;-82
2022/03/10 06:21:35;;;;;;;;;38.50;30.00;;;;;13.59;45.20;101685.00;5102692;27;62043;-87
2022/03/10 06:24:01;;;;;;;;;34.00;31.50;;;;;13.63;45.35;101689.56;5102640;27;63569;-83
2022/03/10 06:26:27;;;;;;;;;30.25;28.00;;;;;13.62;45.27;101694.78;5102037;27;62137;-83
2022/03/10 06:28:52;;;;;;;;;35.50;29.25;;;;;13.64;45.17;101691.38;5104391;27;61877;-84
2022/03/10 06:31:19;;;;;;;;;40.75;35.00;;;;;13.66;45.28;101694.09;5104273;27;61890;-83
2022/03/10 06:33:44;;;;;;;;;45.25;36.00;;;;;13.69;45.21;101692.50;5102986;27;62996;-78
2022/03/10 06:36:11;;;;;;;;;36.75;28.50;;;;;13.68;45.20;101701.22;5103086;27;61792;-78
2022/03/10 06:38:37;;;;;;;;;38.00;33.50;;;;;13.71;45.20;101705.78;5102153;27;61980;-71
2022/03/10 06:41:02;;;;;;;;;39.50;29.00;;;;;13.75;45.14;101698.88;5102279;27;61840;-83
2022/03/10 06:43:28;;;;;;;;;33.00;28.50;;;;;13.80;45.42;101700.00;5100712;27;63640;-82
2022/03/10 06:45:53;;;;;;;;;33.75;29.50;;;;;13.82;45.02;101699.25;5101891;27;62033;-84
2022/03/10 06:48:20;;;;;;;;;38.75;29.50;;;;;13.86;45.46;101702.91;5103592;27;62147;-83
2022/03/10 06:50:45;;;;;;;;;31.00;29.25;;;;;13.87;45.31;101699.44;5101630;27;61904;-89
2022/03/10 06:53:12;;;;;;;;;31.50;29.50;;;;;13.89;45.26;101706.59;5102459;27;62023;-87
2022/03/10 06:55:38;;;;;;;;;32.25;28.75;;;;;13.95;45.30;101698.06;5101671;27;61918;-87
2022/03/10 06:58:04;;;;;;;;;30.50;25.75;;;;;14.00;45.01;101698.28;5100115;27;61822;-88
2022/03/10 07:00:30;;;;;;;;;32.00;28.00;;;;;14.05;45.20;101702.94;5104381;27;61643;-86
2022/03/10 07:02:56;;;;;;;;;39.25;33.75;;;;;14.11;44.91;101707.56;5103732;27;62212;-85
2022/03/10 07:05:21;;;;;;;;;33.25;30.50;;;;;14.12;45.30;101704.13;5102057;27;61961;-85
2022/03/10 07:07:47;;;;;;;;;34.00;29.75;;;;;14.16;44.97;101713.06;5112654;27;61804;-88
2022/03/10 07:10:12;;;;;;;;;37.75;27.50;;;;;14.24;44.90;101716.94;5103400;27;61829;-86
2022/03/10 07:12:39;;;;;;;;;36.50;29.25;;;;;14.29;44.63;101712.78;5100224;27;63629;-84
2022/03/10 07:15:07;;;;;;;;;36.75;31.00;;;;;14.39;44.81;101719.34;5103911;27;61796;-83
2022/03/10 07:17:33;;;;;;;;;36.00;29.25;;;;;14.44;44.26;101720.44;5103392;27;61781;-80
2022/03/10 07:19:59;;;;;;;;;37.25;33.25;;;;;14.57;44.29;101722.84;5103659;27;62104;-82
2022/03/10 07:22:24;;;;;;;;;39.00;30.25;;;;;14.81;43.74;101717.69;5102181;27;62857;-81
2022/03/10 07:24:50;;;;;;;;;32.50;26.50;;;;;15.28;43.15;101716.09;5102965;27;61728;-81
2022/03/10 07:27:16;;;;;;;;;31.50;29.00;;;;;15.64;42.57;101720.13;5101378;27;61921;-84
2022/03/10 07:29:41;;;;;;;;;37.25;29.25;;;;;15.91;42.28;101718.56;5101445;27;61832;-82
2022/03/10 07:32:07;;;;;;;;;31.00;28.00;;;;;16.28;41.22;101719.94;5100786;27;61966;-79
2022/03/10 07:34:33;;;;;;;;;33.50;29.00;;;;;16.44;40.92;101715.19;5099674;27;62067;-80
2022/03/10 07:36:58;;;;;;;;;30.75;26.75;;;;;16.68;40.70;101717.78;5102237;27;61834;-83
2022/03/10 07:39:24;;;;;;;;;39.25;31.75;;;;;16.84;40.42;101711.25;5102083;27;62117;-83
2022/03/10 07:41:50;;;;;;;;;39.75;30.25;;;;;16.99;40.48;101724.13;5101436;27;61912;-81
2022/03/10 07:44:15;;;;;;;;;35.75;29.75;;;;;17.15;40.47;101723.81;5099185;27;62287;-78
2022/03/10 07:46:41;;;;;;;;;43.50;29.00;;;;;17.17;39.87;101730.06;5100968;27;62329;-83
2022/03/10 07:49:08;;;;;;;;;31.00;28.75;;;;;17.07;40.16;101722.66;5099762;27;62250;-83
2022/03/10 07:51:34;;;;;;;;;37.50;32.50;;;;;17.06;40.19;101726.16;5100976;27;64145;-82
2022/03/10 07:54:00;;;;;;;;;33.50;27.00;;;;;16.97;40.06;101726.75;5096459;27;62110;-82
2022/03/10 07:56:25;;;;;;;;;38.00;32.00;;;;;16.87;40.47;101722.88;5079720;28;61887;-82
2022/03/10 07:58:50;;;;;;;;;32.75;31.75;;;;;16.82;40.51;101721.84;5124332;27;61806;-82
2022/03/10 08:01:16;;;;;;;;;43.50;33.25;;;;;16.73;40.64;101719.75;5101352;27;63527;-82
2022/03/10 08:03:42;;;;;;;;;34.00;31.50;;;;;16.66;40.98;101720.38;5103011;27;61866;-82
2022/03/10 08:06:08;;;;;;;;;38.50;31.75;;;;;16.62;40.81;101726.41;5105427;27;61945;-83
2022/03/10 08:08:33;;;;;;;;;40.50;30.75;;;;;16.64;40.79;101723.81;5105386;27;61803;-82
2022/03/10 08:10:59;;;;;;;;;44.50;38.75;;;;;16.66;40.88;101727.41;5104507;27;62020;-82
2022/03/10 08:13:26;;;;;;;;;43.25;32.50;;;;;16.72;40.78;101728.53;5104241;27;61863;-82
2022/03/10 08:15:53;;;;;;;;;38.00;30.75;;;;;16.79;40.78;101736.69;5104771;27;61839;-82
2022/03/10 08:18:18;;;;;;;;;28.25;27.00;;;;;16.76;40.80;101730.44;5106552;27;61673;-82
2022/03/10 08:20:44;;;;;;;;;35.50;31.50;;;;;16.79;40.84;101729.63;5104666;27;62142;-82
2022/03/10 08:23:09;;;;;;;;;41.50;32.50;;;;;16.81;40.93;101730.63;5121980;27;61867;-82
2022/03/10 08:25:38;;;;;;;;;44.00;31.50;;;;;16.90;41.19;101736.28;5105750;27;62169;-82
2022/03/10 08:28:05;;;;;;;;;33.25;27.25;;;;;16.99;40.74;101729.44;5104867;27;62225;-82
2022/03/10 08:30:31;;;;;;;;;29.50;27.00;;;;;16.98;40.50;101733.84;5103394;27;63830;-82
2022/03/10 08:32:57;;;;;;;;;31.50;25.75;;;;;17.03;41.01;101732.28;5103958;27;61782;-82
2022/03/10 08:35:23;;;;;;;;;29.50;26.50;;;;;17.03;40.79;101737.59;5104583;27;62071;-82
2022/03/10 08:37:49;;;;;;;;;30.50;22.25;;;;;17.03;40.72;101734.94;5104545;27;62085;-82
2022/03/10 08:40:17;;;;;;;;;36.25;30.25;;;;;17.02;41.02;101729.56;5103504;27;64962;-82
2022/03/10 08:42:47;;;;;;;;;30.75;27.75;;;;;17.07;40.73;101723.53;5104324;27;62024;-82
2022/03/10 08:45:13;;;;;;;;;39.25;31.50;;;;;17.11;40.63;101727.22;5105888;27;61783;-82
2022/03/10 08:47:38;;;;;;;;;31.25;28.00;;;;;17.14;40.70;101717.59;5104929;27;62120;-82
2022/03/10 08:50:05;;;;;;;;;34.75;28.50;;;;;17.19;40.54;101725.72;5103916;27;63589;-82
2022/03/10 08:52:31;;;;;;;;;31.50;24.75;;;;;17.19;40.71;101719.50;5104551;27;61806;-82
2022/03/10 08:54:57;;;;;;;;;39.00;29.25;;;;;17.22;40.73;101711.63;5104291;27;62109;-82
2022/03/10 08:57:22;;;;;;;;;35.25;29.00;;;;;17.29;40.67;101709.25;5104889;27;62179;-82
2022/03/10 08:59:48;;;;;;;;;31.50;27.25;;;;;17.31;40.46;101707.53;5103736;27;64493;-82
2022/03/10 09:02:13;;;;;;;;;32.25;27.00;;;;;17.30;40.67;101707.47;5105560;27;62019;-82
2022/03/10 09:04:39;;;;;;;;;36.00;26.75;;;;;17.30;40.59;101702.16;5105763;27;62041;-81
2022/03/10 09:07:05;;;;;;;;;37.75;27.75;;;;;17.33;40.44;101702.25;5104687;27;62114;-84
2022/03/10 09:09:31;;;;;;;;;38.00;35.25;;;;;17.37;40.62;101705.06;5105264;27;62811;-81
2022/03/10 09:11:57;;;;;;;;;39.25;32.75;;;;;17.41;40.50;101710.47;5104847;27;62081;-81
2022/03/10 09:14:22;;;;;;;;;27.75;25.00;;;;;17.42;40.50;101706.94;5102409;27;61923;-82
2022/03/10 09:16:48;;;;;;;;;37.00;29.75;;;;;17.49;40.61;101711.63;5104439;27;61728;-81
2022/03/10 09:19:13;;;;;;;;;51.50;38.75;;;;;17.54;40.45;101710.00;5104960;27;61758;-82
2022/03/10 09:21:39;;;;;;;;;53.75;41.50;;;;;17.56;40.33;101710.94;5121281;27;61757;-81
2022/03/10 09:24:05;;;;;;;;;29.00;26.25;;;;;17.59;40.29;101711.03;5103994;27;62269;-81
2022/03/10 09:26:31;;;;;;;;;56.75;40.75;;;;;17.59;40.23;101711.03;5102897;27;61766;-81
2022/03/10 09:28:56;;;;;;;;;56.75;44.50;;;;;17.64;40.34;101712.06;5104541;27;63061;-81
2022/03/10 09:31:21;;;;;;;;;51.00;35.75;;;;;17.69;40.41;101696.28;5105405;27;61951;-81
2022/03/10 09:33:47;;;;;;;;;34.75;31.00;;;;;17.74;40.52;101702.66;5103636;27;62066;-81
2022/03/10 09:36:14;;;;;;;;;35.75;30.75;;;;;17.78;40.27;101702.78;5103905;27;61829;-81
2022/03/10 09:38:40;;;;;;;;;45.25;31.75;;;;;17.83;40.34;101699.38;5103234;27;61794;-80
2022/03/10 09:41:05;;;;;;;;;37.25;29.50;;;;;17.82;40.22;101693.16;5103420;27;61841;-82
2022/03/10 09:43:32;;;;;;;;;42.00;32.50;;;;;17.85;40.46;101703.00;5104537;27;61947;-82
2022/03/10 09:45:57;;;;;;;;;36.75;29.25;;;;;17.82;40.50;101702.84;5105500;27;61707;-82
2022/03/10 09:48:23;;;;;;;;;35.50;28.00;;;;;17.82;40.60;101703.78;5102946;27;64587;-81
2022/03/10 09:50:49;;;;;;;;;27.50;24.00;;;;;17.85;40.59;101692.38;5104658;27;61725;-82
2022/03/10 09:53:16;;;;;;;;;42.00;33.25;;;;;17.84;40.60;101693.22;5103447;27;62060;-82
2022/03/10 09:55:42;;;;;;;;;38.75;33.25;;;;;17.90;40.74;101698.72;5103308;27;61877;-82
2022/03/10 09:58:08;;;;;;;;;34.75;28.25;;;;;17.96;40.45;101697.13;5101762;27;63179;-82
2022/03/10 10:00:33;;;;;;;;;38.50;35.50;;;;;17.99;40.52;101693.66;5104966;27;62062;-82
2022/03/10 10:02:59;;;;;;;;;32.00;25.75;;;;;18.07;40.38;101693.88;5102923;27;61841;-81
2022/03/10 10:05:27;;;;;;;;;45.00;30.25;;;;;18.15;40.33;101695.00;5104829;27;61743;-82
2022/03/10 10:08:09;;;;;;;;;40.50;30.00;;;;;18.24;40.38;101692.59;5102843;27;63711;-81
2022/03/10 10:10:39;;;;;;;;;26.00;22.50;;;;;18.33;40.47;101689.28;5103248;27;61860;-81
2022/03/10 10:13:09;;;;;;;;;23.25;21.50;;;;;18.39;40.23;101689.44;5104141;27;61968;-82
2022/03/10 10:15:40;;;;;;;;;23.75;18.75;;;;;18.46;39.96;101686.09;5103603;27;62209;-82
2022/03/10 10:18:12;;;;;;;;;25.00;22.75;;;;;18.49;40.04;101688.84;5104056;27;62792;-82
2022/03/10 10:20:48;;;;;;;;;21.00;18.25;;;;;18.57;40.02;101681.97;5104810;27;61642;-82
2022/03/10 10:23:20;;;;;;;;;24.00;17.75;;;;;18.63;39.91;101678.56;5102508;27;61756;-81
2022/03/10 10:26:12;;;;;;;;;25.00;22.25;;;;;18.68;39.94;101671.59;5102365;27;62265;-81
2022/03/10 10:28:37;;;;;;;;;23.50;20.50;;;;;18.74;39.91;101674.41;5101759;27;63058;-82
2022/03/10 10:31:10;;;;;;;;;16.50;15.75;;;;;18.84;40.19;101662.28;5104423;27;61774;-82
2022/03/10 10:33:37;;;;;;;;;23.25;18.50;;;;;18.92;40.11;101668.69;5104469;27;61685;-81
2022/03/10 10:36:18;;;;;;;;;17.50;16.75;;;;;19.00;39.85;101664.44;5104469;27;62172;-81
2022/03/10 10:38:46;;;;;;;;;19.00;14.25;;;;;19.08;39.89;101651.31;5103304;27;62092;-82
2022/03/10 10:41:29;;;;;;;;;21.75;14.25;;;;;19.16;39.86;101648.84;5104060;27;61929;-81
2022/03/10 10:44:20;;;;;;;;;24.50;15.25;;;;;19.16;39.47;101647.06;5103796;27;61835;-82
2022/03/10 10:46:54;;;;;;;;;20.75;18.25;;;;;19.33;39.61;101651.88;5103004;27;61809;-82
2022/03/10 10:49:22;;;;;;;;;24.25;17.25;;;;;19.43;39.31;101640.59;5102152;27;63715;-81
2022/03/10 10:51:50;;;;;;;;;21.50;16.25;;;;;19.55;39.28;101638.16;5102422;27;61817;-81
2022/03/10 10:54:18;;;;;;;;;19.50;13.75;;;;;19.67;39.24;101637.53;5103859;27;61786;-82
2022/03/10 10:56:55;;;;;;;;;19.75;15.25;;;;;19.80;39.49;101631.63;5103003;27;62082;-81
2022/03/10 10:59:38;;;;;;;;;22.50;18.00;;;;;19.95;38.97;101638.13;5099766;27;63771;-81
2022/03/10 11:02:17;;;;;;;;;16.75;16.00;;;;;20.06;38.72;101628.56;5102763;27;61925;-81
2022/03/10 11:04:48;;;;;;;;;19.25;14.75;;;;;20.22;38.29;101628.00;5102449;27;61937;-81
2022/03/10 11:07:14;;;;;;;;;19.50;16.75;;;;;20.41;38.22;101615.84;5102973;27;61708;-81
2022/03/10 11:09:43;;;;;;;;;17.75;15.00;;;;;20.57;38.34;101613.47;5102671;27;61763;-82
2022/03/10 11:12:13;;;;;;;;;15.75;11.25;;;;;20.69;37.82;101607.44;5103444;27;61789;-81
2022/03/10 11:14:39;;;;;;;;;20.50;15.50;;;;;20.81;37.79;101596.97;5102455;27;61997;-80